Time;durP1;ratioP1;P1;durP2;ratioP2;P2;SDS_P1;SDS_P2;PMS_P1;PMS_P2;Temp;Humidity;BMP_temperature;BMP_pressure;BME280_temperature;BME280_humidity;BME280_pressure;Samples;Min_cycle;Max_cycle;Signal;HPM_P1;HPM_P2
2023/08/30 00:00:57;;;;;;;6.63;5.00;;;;;;;;;;5060588;28;20186;-75
2023/08/30 00:03:23;;;;;;;6.83;5.10;;;;;;;;;;5076575;28;20210;-75
2023/08/30 00:05:49;;;;;;;7.97;4.97;;;;;;;;;;5062079;28;20212;-78
2023/08/30 00:08:19;;;;;;;5.57;5.07;;;;;;;;;;5057631;28;20172;-79
2023/08/30 00:10:45;;;;;;;5.80;4.77;;;;;;;;;;5058236;28;20209;-79
2023/08/30 00:13:11;;;;;;;7.03;5.00;;;;;;;;;;5057608;28;20197;-78
2023/08/30 00:15:37;;;;;;;7.07;5.13;;;;;;;;;;5074080;28;20210;-79
2023/08/30 00:18:03;;;;;;;9.37;5.13;;;;;;;;;;5074627;28;20175;-79
2023/08/30 00:20:29;;;;;;;5.60;4.97;;;;;;;;;;5067816;28;20183;-78
2023/08/30 00:22:55;;;;;;;5.73;5.13;;;;;;;;;;5080797;28;20221;-73
2023/08/30 00:25:21;;;;;;;6.83;5.50;;;;;;;;;;5060946;28;20178;-73
2023/08/30 00:27:47;;;;;;;6.77;5.97;;;;;;;;;;5060687;28;20186;-73
2023/08/30 00:30:14;;;;;;;7.13;6.20;;;;;;;;;;5060729;28;20182;-73
2023/08/30 00:32:40;;;;;;;7.73;6.37;;;;;;;;;;5095158;28;20189;-73
2023/08/30 00:35:06;;;;;;;11.07;8.80;;;;;;;;;;5077066;28;20182;-73
2023/08/30 00:37:32;;;;;;;8.90;7.90;;;;;;;;;;5060532;28;20277;-73
2023/08/30 00:39:59;;;;;;;9.37;8.43;;;;;;;;;;5077142;28;20220;-74
2023/08/30 00:42:26;;;;;;;12.53;8.67;;;;;;;;;;5094714;28;20285;-74
2023/08/30 00:44:52;;;;;;;9.33;8.20;;;;;;;;;;5090226;28;20186;-75
2023/08/30 00:47:18;;;;;;;13.17;9.13;;;;;;;;;;5067112;28;20253;-75
2023/08/30 00:49:44;;;;;;;13.50;8.83;;;;;;;;;;5085142;28;20175;-75
2023/08/30 00:52:11;;;;;;;9.80;8.30;;;;;;;;;;5068202;28;20175;-75
2023/08/30 00:54:37;;;;;;;11.50;9.37;;;;;;;;;;5070329;28;20183;-75
2023/08/30 00:57:05;;;;;;;9.83;8.80;;;;;;;;;;5053422;28;20242;-74
2023/08/30 00:59:32;;;;;;;10.20;9.13;;;;;;;;;;5069769;28;20185;-74
2023/08/30 01:01:59;;;;;;;9.80;8.83;;;;;;;;;;5070336;28;20182;-75
2023/08/30 01:04:25;;;;;;;10.17;9.10;;;;;;;;;;5070533;28;20218;-74
2023/08/30 01:06:52;;;;;;;9.90;9.00;;;;;;;;;;5064705;28;20213;-74
2023/08/30 01:09:18;;;;;;;10.27;9.20;;;;;;;;;;5049681;28;20185;-74
2023/08/30 01:12:03;;;;;;;10.07;8.77;;;;;;;;;;5088913;28;20179;-74
2023/08/30 01:14:31;;;;;;;10.00;9.00;;;;;;;;;;5066033;28;20189;-79
2023/08/30 01:16:58;;;;;;;10.23;9.13;;;;;;;;;;5088185;28;20185;-79
2023/08/30 01:19:39;;;;;;;10.37;8.93;;;;;;;;;;5058147;28;20186;-78
2023/08/30 01:22:15;;;;;;;10.47;8.93;;;;;;;;;;5070102;28;20190;-79
2023/08/30 01:24:50;;;;;;;9.33;8.30;;;;;;;;;;5094446;28;20255;-79
2023/08/30 01:27:17;;;;;;;9.40;8.47;;;;;;;;;;5087523;28;20189;-79
2023/08/30 01:29:44;;;;;;;10.43;8.53;;;;;;;;;;5068020;28;20187;-74
2023/08/30 01:32:11;;;;;;;11.67;8.97;;;;;;;;;;5069483;28;20265;-74
2023/08/30 01:34:40;;;;;;;9.17;8.30;;;;;;;;;;5050007;28;20187;-75
2023/08/30 01:37:10;;;;;;;8.53;7.63;;;;;;;;;;5067009;28;20178;-74
2023/08/30 01:39:40;;;;;;;8.20;7.37;;;;;;;;;;5065647;28;20175;-74
2023/08/30 01:42:07;;;;;;;8.30;7.50;;;;;;;;;;5054189;28;20190;-74
2023/08/30 01:44:33;;;;;;;8.60;7.17;;;;;;;;;;5050806;28;20211;-74
2023/08/30 01:47:00;;;;;;;9.27;7.23;;;;;;;;;;5051353;28;20209;-80
2023/08/30 01:49:27;;;;;;;7.77;7.00;;;;;;;;;;5070181;28;20179;-79
2023/08/30 01:51:53;;;;;;;7.67;6.87;;;;;;;;;;5068458;28;20182;-80
2023/08/30 01:54:20;;;;;;;10.70;7.70;;;;;;;;;;5052838;28;20191;-80
2023/08/30 01:56:47;;;;;;;8.17;7.37;;;;;;;;;;5066785;28;20231;-79
2023/08/30 01:59:13;;;;;;;8.70;7.87;;;;;;;;;;5068128;28;20187;-80
2023/08/30 02:01:39;;;;;;;8.77;7.87;;;;;;;;;;5067375;28;20236;-79
2023/08/30 02:04:05;;;;;;;8.83;7.40;;;;;;;;;;5065495;28;20211;-75
2023/08/30 02:06:34;;;;;;;8.60;7.63;;;;;;;;;;5085230;28;20472;-75
2023/08/30 02:09:18;;;;;;;8.87;7.97;;;;;;;;;;5066020;28;20182;-75
2023/08/30 02:11:45;;;;;;;8.80;7.30;;;;;;;;;;5065783;28;20175;-75
2023/08/30 02:14:12;;;;;;;8.97;7.77;;;;;;;;;;5084593;28;20271;-75
2023/08/30 02:16:39;;;;;;;8.85;7.95;;;;;;;;;;5050833;28;20428;-76
2023/08/30 02:19:06;;;;;;;9.10;8.30;;;;;;;;;;5066853;28;20184;-76
2023/08/30 02:21:32;;;;;;;8.93;8.07;;;;;;;;;;5083126;28;20281;-76
2023/08/30 02:23:58;;;;;;;8.90;7.97;;;;;;;;;;5049251;28;20325;-76
2023/08/30 02:26:24;;;;;;;8.93;8.00;;;;;;;;;;5070019;28;20182;-76
2023/08/30 02:28:50;;;;;;;10.03;7.90;;;;;;;;;;5073072;28;20179;-76
2023/08/30 02:31:16;;;;;;;9.00;7.50;;;;;;;;;;5074240;28;20187;-76
2023/08/30 02:33:42;;;;;;;9.53;8.20;;;;;;;;;;5071020;28;20207;-76
2023/08/30 02:36:08;;;;;;;9.27;8.37;;;;;;;;;;5072465;28;20180;-79
2023/08/30 02:38:34;;;;;;;8.47;7.67;;;;;;;;;;5056452;28;20190;-79
2023/08/30 02:41:00;;;;;;;9.20;8.10;;;;;;;;;;5077937;28;20198;-79
2023/08/30 02:43:26;;;;;;;9.40;7.53;;;;;;;;;;5060038;28;20218;-79
2023/08/30 02:45:52;;;;;;;10.87;8.37;;;;;;;;;;5067118;28;20179;-79
2023/08/30 02:48:18;;;;;;;9.63;8.03;;;;;;;;;;5062451;28;20192;-79
2023/08/30 02:50:44;;;;;;;9.40;8.30;;;;;;;;;;5079481;28;20185;-79
2023/08/30 02:53:10;;;;;;;9.90;8.17;;;;;;;;;;5066784;28;20191;-76
2023/08/30 02:55:36;;;;;;;8.47;7.30;;;;;;;;;;5051080;28;20195;-76
2023/08/30 02:58:03;;;;;;;10.90;7.70;;;;;;;;;;5067140;28;20229;-76
2023/08/30 03:00:29;;;;;;;8.57;7.70;;;;;;;;;;5097047;28;20214;-76
2023/08/30 03:02:55;;;;;;;8.70;7.80;;;;;;;;;;5072682;28;20245;-76
2023/08/30 03:05:21;;;;;;;9.70;8.67;;;;;;;;;;5096946;28;20190;-76
2023/08/30 03:07:47;;;;;;;9.40;8.37;;;;;;;;;;5062108;28;20187;-76
2023/08/30 03:10:13;;;;;;;9.70;8.37;;;;;;;;;;5079270;28;20186;-76
2023/08/30 03:12:39;;;;;;;11.93;8.43;;;;;;;;;;5078952;28;20288;-76
2023/08/30 03:15:05;;;;;;;9.40;8.50;;;;;;;;;;5075670;28;20196;-76
2023/08/30 03:17:32;;;;;;;9.23;8.27;;;;;;;;;;5078990;28;20186;-76
2023/08/30 03:19:58;;;;;;;9.40;8.60;;;;;;;;;;5078441;28;20204;-76
2023/08/30 03:22:24;;;;;;;8.80;8.00;;;;;;;;;;5062193;28;20261;-76
2023/08/30 03:24:50;;;;;;;9.30;8.40;;;;;;;;;;5045145;28;20214;-76
2023/08/30 03:27:16;;;;;;;10.03;8.93;;;;;;;;;;5062338;28;20185;-75
2023/08/30 03:29:42;;;;;;;12.37;9.03;;;;;;;;;;5096221;28;20278;-76
2023/08/30 03:32:08;;;;;;;9.90;8.90;;;;;;;;;;5096131;28;20257;-76
2023/08/30 03:34:34;;;;;;;10.90;8.90;;;;;;;;;;5079048;28;20179;-76
2023/08/30 03:37:00;;;;;;;9.33;8.43;;;;;;;;;;5061924;28;20179;-75
2023/08/30 03:39:26;;;;;;;9.47;8.47;;;;;;;;;;5078787;28;20181;-76
2023/08/30 03:41:52;;;;;;;10.00;8.80;;;;;;;;;;5061806;28;20182;-75
2023/08/30 03:44:18;;;;;;;9.37;8.47;;;;;;;;;;5061783;28;20210;-75
2023/08/30 03:46:44;;;;;;;9.53;8.47;;;;;;;;;;5096366;28;20178;-76
2023/08/30 03:49:10;;;;;;;10.47;8.20;;;;;;;;;;5061572;28;20183;-76
2023/08/30 03:51:36;;;;;;;12.23;10.37;;;;;;;;;;5095163;28;20186;-76
2023/08/30 03:54:02;;;;;;;10.70;9.60;;;;;;;;;;5075669;28;20209;-76
2023/08/30 03:56:28;;;;;;;11.77;9.97;;;;;;;;;;5083195;28;20175;-76
2023/08/30 03:58:54;;;;;;;12.80;10.43;;;;;;;;;;5057704;28;20239;-74
2023/08/30 04:01:20;;;;;;;14.60;12.47;;;;;;;;;;5073756;28;20197;-75
2023/08/30 04:03:46;;;;;;;13.70;12.30;;;;;;;;;;5093445;28;20311;-74
2023/08/30 04:06:12;;;;;;;13.80;11.77;;;;;;;;;;5095733;28;20197;-74
2023/08/30 04:08:38;;;;;;;13.73;12.33;;;;;;;;;;5057297;28;20179;-74
2023/08/30 04:11:04;;;;;;;13.80;12.40;;;;;;;;;;5057722;28;20182;-74
2023/08/30 04:13:30;;;;;;;14.17;12.67;;;;;;;;;;5083879;28;20187;-74
2023/08/30 04:15:58;;;;;;;15.37;13.77;;;;;;;;;;5049731;28;20179;-74
2023/08/30 04:18:24;;;;;;;18.60;13.70;;;;;;;;;;5066452;28;20204;-74
2023/08/30 04:20:50;;;;;;;14.20;12.80;;;;;;;;;;5069119;28;20182;-74
2023/08/30 04:23:16;;;;;;;17.17;13.73;;;;;;;;;;5077341;28;20206;-74
2023/08/30 04:25:42;;;;;;;17.00;14.20;;;;;;;;;;5059652;28;20182;-74
2023/08/30 04:28:08;;;;;;;18.27;14.30;;;;;;;;;;5077958;28;20183;-74
2023/08/30 04:30:36;;;;;;;17.37;13.80;;;;;;;;;;5098991;28;20170;-74
2023/08/30 04:33:02;;;;;;;15.27;13.63;;;;;;;;;;5073293;28;20182;-76
2023/08/30 04:35:29;;;;;;;16.27;13.90;;;;;;;;;;5076887;28;20240;-76
2023/08/30 04:37:55;;;;;;;14.33;12.83;;;;;;;;;;5069207;28;20187;-76
2023/08/30 04:40:21;;;;;;;14.77;13.27;;;;;;;;;;5046601;28;20186;-76
2023/08/30 04:42:47;;;;;;;14.17;12.77;;;;;;;;;;5060200;28;20187;-76
2023/08/30 04:45:13;;;;;;;13.93;12.43;;;;;;;;;;5058521;28;20184;-76
2023/08/30 04:47:39;;;;;;;14.73;13.23;;;;;;;;;;5071346;28;20183;-76
2023/08/30 04:50:05;;;;;;;14.50;13.00;;;;;;;;;;5076900;28;20182;-74
2023/08/30 04:52:32;;;;;;;14.57;12.73;;;;;;;;;;5077127;28;20174;-74
2023/08/30 04:54:57;;;;;;;14.03;12.73;;;;;;;;;;5056702;28;20215;-73
2023/08/30 04:57:23;;;;;;;14.10;12.70;;;;;;;;;;5056369;28;20320;-74
2023/08/30 04:59:49;;;;;;;14.43;12.10;;;;;;;;;;5056762;28;20186;-74
2023/08/30 05:02:15;;;;;;;13.40;11.97;;;;;;;;;;5093036;28;20183;-74
2023/08/30 05:04:41;;;;;;;13.63;11.57;;;;;;;;;;5070522;28;20203;-74
2023/08/30 05:07:07;;;;;;;11.63;10.43;;;;;;;;;;5049473;28;20192;-79
2023/08/30 05:09:34;;;;;;;11.53;10.33;;;;;;;;;;5059958;28;20193;-79
2023/08/30 05:12:01;;;;;;;12.83;11.53;;;;;;;;;;5076691;28;20189;-79
2023/08/30 05:14:27;;;;;;;12.67;11.37;;;;;;;;;;5076598;28;20183;-79
2023/08/30 05:16:53;;;;;;;13.97;11.33;;;;;;;;;;5094567;28;20183;-79
2023/08/30 05:19:19;;;;;;;13.87;11.43;;;;;;;;;;5094339;28;20179;-80
2023/08/30 05:21:45;;;;;;;13.07;11.77;;;;;;;;;;5076841;28;20175;-79
2023/08/30 05:24:11;;;;;;;12.80;11.50;;;;;;;;;;5094765;28;20202;-79
2023/08/30 05:26:37;;;;;;;13.83;12.07;;;;;;;;;;5073118;28;20186;-79
2023/08/30 05:29:04;;;;;;;15.27;12.83;;;;;;;;;;5039957;28;20183;-79
2023/08/30 05:31:30;;;;;;;13.40;11.97;;;;;;;;;;5068933;28;20195;-81
2023/08/30 05:33:56;;;;;;;12.90;11.60;;;;;;;;;;5063206;28;20198;-79
2023/08/30 05:36:22;;;;;;;15.13;12.73;;;;;;;;;;5056889;28;20180;-80
2023/08/30 05:38:48;;;;;;;15.33;12.57;;;;;;;;;;5039975;28;20278;-74
2023/08/30 05:41:14;;;;;;;14.40;12.50;;;;;;;;;;5058457;28;20221;-72
2023/08/30 05:43:40;;;;;;;13.43;12.07;;;;;;;;;;5093532;28;20242;-73
2023/08/30 05:46:12;;;;;;;14.97;12.93;;;;;;;;;;5076195;28;20265;-73
2023/08/30 05:48:38;;;;;;;13.40;12.03;;;;;;;;;;5060242;28;20241;-73
2023/08/30 05:51:04;;;;;;;13.83;11.90;;;;;;;;;;5059805;28;20270;-73
2023/08/30 05:53:30;;;;;;;14.43;12.37;;;;;;;;;;5075343;28;20182;-73
2023/08/30 05:55:56;;;;;;;13.47;12.17;;;;;;;;;;5073107;28;20235;-78
2023/08/30 05:58:22;;;;;;;15.27;12.13;;;;;;;;;;5059008;28;20226;-78
2023/08/30 06:00:48;;;;;;;17.20;13.13;;;;;;;;;;5075937;28;20277;-78
2023/08/30 06:03:14;;;;;;;15.87;13.43;;;;;;;;;;5059333;28;20306;-78
2023/08/30 06:05:40;;;;;;;15.07;13.47;;;;;;;;;;5074728;28;20254;-78
2023/08/30 06:08:07;;;;;;;15.20;13.70;;;;;;;;;;5059373;28;20215;-78
2023/08/30 06:10:33;;;;;;;14.70;13.20;;;;;;;;;;5059435;28;20186;-78
2023/08/30 06:12:59;;;;;;;15.37;13.63;;;;;;;;;;5076062;28;20190;-74
2023/08/30 06:15:26;;;;;;;16.10;14.50;;;;;;;;;;5059616;28;20194;-74
2023/08/30 06:17:52;;;;;;;17.67;15.70;;;;;;;;;;5060867;28;20186;-73
2023/08/30 06:20:18;;;;;;;19.00;16.30;;;;;;;;;;5078750;28;20185;-73
2023/08/30 06:22:44;;;;;;;18.20;16.40;;;;;;;;;;5062755;28;20193;-73
2023/08/30 06:25:10;;;;;;;20.17;17.97;;;;;;;;;;5097222;28;20175;-73
2023/08/30 06:27:43;;;;;;;19.87;17.60;;;;;;;;;;5077121;28;20175;-74
2023/08/30 06:30:09;;;;;;;20.73;18.53;;;;;;;;;;5097622;28;20206;-74
2023/08/30 06:32:35;;;;;;;22.33;18.90;;;;;;;;;;5079529;28;20185;-74
2023/08/30 06:35:01;;;;;;;21.53;19.07;;;;;;;;;;5046279;28;20187;-74
2023/08/30 06:37:27;;;;;;;23.00;20.60;;;;;;;;;;5089226;28;20178;-74
2023/08/30 06:39:53;;;;;;;21.97;19.83;;;;;;;;;;5081443;28;20185;-75
2023/08/30 06:42:19;;;;;;;23.43;20.93;;;;;;;;;;5101161;28;20247;-75
2023/08/30 06:44:45;;;;;;;22.83;20.17;;;;;;;;;;5082088;28;20198;-75
2023/08/30 06:47:12;;;;;;;22.50;20.30;;;;;;;;;;5054778;28;20186;-75
2023/08/30 06:49:38;;;;;;;22.50;20.10;;;;;;;;;;5109234;28;20174;-77
2023/08/30 06:52:04;;;;;;;22.07;19.47;;;;;;;;;;5081435;28;20201;-76
2023/08/30 06:54:35;;;;;;;21.77;19.43;;;;;;;;;;5112026;28;20220;-75
2023/08/30 06:57:01;;;;;;;21.27;19.07;;;;;;;;;;5085096;28;20218;-77
2023/08/30 06:59:27;;;;;;;23.40;18.80;;;;;;;;;;5104645;28;20184;-75
2023/08/30 07:01:53;;;;;;;22.43;19.13;;;;;;;;;;5056866;28;20196;-75
2023/08/30 07:04:19;;;;;;;20.23;17.30;;;;;;;;;;5077653;28;20198;-80
2023/08/30 07:06:46;;;;;;;20.03;17.90;;;;;;;;;;5062665;28;20175;-82
2023/08/30 07:09:12;;;;;;;19.43;17.47;;;;;;;;;;5078697;28;20182;-82
2023/08/30 07:11:38;;;;;;;20.10;18.10;;;;;;;;;;5112585;28;20174;-82
2023/08/30 07:14:04;;;;;;;19.90;17.90;;;;;;;;;;5097977;28;20216;-83
2023/08/30 07:16:31;;;;;;;19.60;17.50;;;;;;;;;;5116237;28;20182;-83
2023/08/30 07:18:58;;;;;;;20.40;18.20;;;;;;;;;;5082521;28;20188;-78
2023/08/30 07:21:24;;;;;;;23.43;18.30;;;;;;;;;;5077718;28;20183;-77
2023/08/30 07:23:50;;;;;;;24.03;17.87;;;;;;;;;;5075019;28;20211;-77
2023/08/30 07:26:16;;;;;;;21.67;19.17;;;;;;;;;;5075324;28;20270;-77
2023/08/30 07:28:42;;;;;;;22.57;19.30;;;;;;;;;;5058997;28;20242;-77
2023/08/30 07:31:09;;;;;;;23.67;21.13;;;;;;;;;;5076596;28;20167;-77
2023/08/30 07:33:35;;;;;;;21.73;19.10;;;;;;;;;;5059348;28;20210;-77
2023/08/30 07:36:02;;;;;;;23.50;20.57;;;;;;;;;;5075293;28;20206;-76
2023/08/30 07:38:28;;;;;;;20.67;18.57;;;;;;;;;;5088953;28;20193;-76
2023/08/30 07:40:55;;;;;;;21.97;18.80;;;;;;;;;;5096253;28;20187;-77
2023/08/30 07:43:21;;;;;;;20.97;18.03;;;;;;;;;;5094104;28;20241;-74
2023/08/30 07:45:47;;;;;;;19.83;16.83;;;;;;;;;;5061954;28;20210;-75
2023/08/30 07:48:13;;;;;;;21.63;18.07;;;;;;;;;;5061240;28;20186;-75
2023/08/30 07:50:39;;;;;;;20.20;17.43;;;;;;;;;;5077680;28;20194;-75
2023/08/30 07:53:05;;;;;;;19.90;16.73;;;;;;;;;;5078246;28;20183;-77
2023/08/30 07:55:31;;;;;;;20.97;16.50;;;;;;;;;;5078451;28;20240;-77
2023/08/30 07:57:57;;;;;;;17.30;15.40;;;;;;;;;;5069444;28;20235;-77
2023/08/30 08:00:23;;;;;;;18.07;15.97;;;;;;;;;;5064847;28;20183;-77
2023/08/30 08:02:49;;;;;;;21.53;16.30;;;;;;;;;;5057860;28;20210;-77
2023/08/30 08:05:15;;;;;;;21.77;17.50;;;;;;;;;;5060462;28;20198;-77
2023/08/30 08:07:43;;;;;;;20.17;16.53;;;;;;;;;;5095791;28;20178;-77
2023/08/30 08:10:09;;;;;;;23.17;17.13;;;;;;;;;;5095795;28;20167;-80
2023/08/30 08:12:36;;;;;;;25.17;18.23;;;;;;;;;;5057948;28;20265;-80
2023/08/30 08:15:02;;;;;;;20.10;16.93;;;;;;;;;;5060300;28;20187;-80
2023/08/30 08:17:28;;;;;;;20.53;16.50;;;;;;;;;;5093298;28;20174;-80
2023/08/30 08:19:54;;;;;;;24.30;16.13;;;;;;;;;;5061410;28;20286;-80
2023/08/30 08:22:20;;;;;;;22.70;17.73;;;;;;;;;;5057811;28;20179;-81
2023/08/30 08:24:46;;;;;;;22.57;16.37;;;;;;;;;;5077558;28;20298;-80
2023/08/30 08:27:13;;;;;;;21.80;16.70;;;;;;;;;;5061131;28;20183;-80
2023/08/30 08:29:39;;;;;;;20.67;16.57;;;;;;;;;;5077588;28;20174;-81
2023/08/30 08:32:05;;;;;;;24.47;16.60;;;;;;;;;;5067897;28;20191;-81
2023/08/30 08:34:31;;;;;;;20.13;16.10;;;;;;;;;;5049549;28;20195;-81
2023/08/30 08:36:57;;;;;;;22.03;16.80;;;;;;;;;;5089881;28;20186;-80
2023/08/30 08:39:23;;;;;;;23.33;17.07;;;;;;;;;;5072998;28;20195;-80
2023/08/30 08:41:52;;;;;;;24.33;17.30;;;;;;;;;;5076439;28;20185;-79
2023/08/30 08:44:19;;;;;;;25.70;17.70;;;;;;;;;;5060129;28;20221;-77
2023/08/30 08:46:46;;;;;;;20.93;16.97;;;;;;;;;;5094824;28;20190;-77
2023/08/30 08:49:13;;;;;;;25.20;18.17;;;;;;;;;;5095126;28;20182;-80
2023/08/30 08:51:40;;;;;;;22.80;17.97;;;;;;;;;;5076781;28;20174;-80
2023/08/30 08:54:08;;;;;;;23.57;18.20;;;;;;;;;;5056765;28;20191;-80
2023/08/30 08:56:35;;;;;;;23.90;18.27;;;;;;;;;;5085339;28;20183;-79
2023/08/30 08:59:01;;;;;;;21.90;18.17;;;;;;;;;;5060385;28;20190;-77
2023/08/30 09:01:27;;;;;;;22.73;17.57;;;;;;;;;;5094526;28;20181;-77
2023/08/30 09:03:53;;;;;;;22.67;18.30;;;;;;;;;;5072081;28;20207;-77
2023/08/30 09:06:19;;;;;;;24.83;19.93;;;;;;;;;;5063706;28;20182;-77
2023/08/30 09:08:45;;;;;;;27.60;21.07;;;;;;;;;;5064472;28;20317;-77
2023/08/30 09:11:11;;;;;;;26.70;20.90;;;;;;;;;;5054860;28;20216;-77
2023/08/30 09:13:37;;;;;;;27.77;22.97;;;;;;;;;;5059872;28;20213;-77
2023/08/30 09:16:03;;;;;;;25.57;21.40;;;;;;;;;;5071525;28;20191;-75
2023/08/30 09:18:29;;;;;;;25.03;21.83;;;;;;;;;;5065511;28;20190;-75
2023/08/30 09:21:06;;;;;;;28.07;23.23;;;;;;;;;;5076471;28;20182;-75
2023/08/30 09:23:33;;;;;;;28.07;22.77;;;;;;;;;;5075660;28;20209;-75
2023/08/30 09:25:59;;;;;;;27.63;23.50;;;;;;;;;;5059931;28;20175;-75
2023/08/30 09:28:25;;;;;;;29.17;24.23;;;;;;;;;;5075880;28;20190;-75
2023/08/30 09:30:52;;;;;;;30.07;24.53;;;;;;;;;;5060059;28;20222;-75
2023/08/30 09:33:21;;;;;;;27.77;22.97;;;;;;;;;;5076023;28;20186;-77
2023/08/30 09:35:48;;;;;;;26.13;21.60;;;;;;;;;;5075893;28;20239;-77
2023/08/30 09:38:20;;;;;;;24.07;20.30;;;;;;;;;;5071332;28;20195;-76
2023/08/30 09:40:46;;;;;;;22.83;20.40;;;;;;;;;;5076145;28;20190;-76
2023/08/30 09:43:13;;;;;;;24.50;20.80;;;;;;;;;;5093902;28;20206;-81
2023/08/30 09:45:39;;;;;;;22.10;19.60;;;;;;;;;;5076582;28;20189;-80
2023/08/30 09:48:06;;;;;;;22.33;19.30;;;;;;;;;;5074136;28;20171;-81
2023/08/30 09:50:35;;;;;;;18.73;16.93;;;;;;;;;;5074150;28;20183;-77
2023/08/30 09:53:09;;;;;;;19.00;16.20;;;;;;;;;;5056219;28;20186;-75
2023/08/30 09:55:35;;;;;;;16.90;15.10;;;;;;;;;;5056095;28;20183;-75
2023/08/30 09:58:04;;;;;;;16.13;14.43;;;;;;;;;;5077622;28;20257;-74
2023/08/30 10:00:30;;;;;;;14.90;13.47;;;;;;;;;;5076218;28;20179;-75
2023/08/30 10:02:58;;;;;;;15.23;13.70;;;;;;;;;;5076131;28;20181;-75
2023/08/30 10:05:26;;;;;;;16.83;13.00;;;;;;;;;;5076253;28;20185;-75
2023/08/30 10:07:53;;;;;;;14.73;13.10;;;;;;;;;;5094446;28;20163;-82
2023/08/30 10:12:51;;;;;;;14.20;12.80;;;;;;;;;;5056940;28;20294;-77
2023/08/30 10:15:17;;;;;;;13.93;12.53;;;;;;;;;;5035613;28;20242;-77
2023/08/30 10:17:45;;;;;;;13.63;12.30;;;;;;;;;;5036069;28;20262;-75
2023/08/30 10:20:12;;;;;;;13.77;12.43;;;;;;;;;;5055261;28;20180;-75
2023/08/30 10:22:39;;;;;;;13.80;12.40;;;;;;;;;;5039173;28;20210;-76
2023/08/30 10:25:10;;;;;;;13.53;12.13;;;;;;;;;;5038752;28;20215;-77
2023/08/30 10:27:37;;;;;;;13.93;12.63;;;;;;;;;;5038257;28;20184;-77
2023/08/30 10:30:05;;;;;;;13.77;12.30;;;;;;;;;;5034531;28;20278;-77
2023/08/30 10:32:31;;;;;;;14.00;12.60;;;;;;;;;;5045672;28;20189;-77
2023/08/30 10:35:02;;;;;;;13.83;12.43;;;;;;;;;;5033351;28;20181;-77
2023/08/30 10:37:28;;;;;;;14.13;12.80;;;;;;;;;;5032424;28;20271;-77
2023/08/30 10:40:00;;;;;;;15.10;13.57;;;;;;;;;;5033307;28;20177;-76
2023/08/30 10:42:26;;;;;;;14.60;13.20;;;;;;;;;;5045737;28;20189;-77
2023/08/30 10:44:52;;;;;;;15.67;14.17;;;;;;;;;;5035321;28;20231;-77
2023/08/30 10:47:21;;;;;;;14.57;13.13;;;;;;;;;;5036089;28;20211;-77
2023/08/30 10:49:48;;;;;;;15.07;13.47;;;;;;;;;;5035766;28;20285;-77
2023/08/30 10:52:14;;;;;;;15.10;13.07;;;;;;;;;;5035483;28;20176;-77
2023/08/30 10:54:40;;;;;;;14.77;13.50;;;;;;;;;;5036114;28;20180;-77
2023/08/30 10:57:13;;;;;;;14.83;13.33;;;;;;;;;;5035314;28;20187;-77
2023/08/30 10:59:39;;;;;;;15.53;14.13;;;;;;;;;;5050622;28;20182;-77
2023/08/30 11:02:05;;;;;;;15.53;14.10;;;;;;;;;;5021851;28;20196;-77
2023/08/30 11:04:31;;;;;;;15.33;13.73;;;;;;;;;;5023173;28;20204;-77
2023/08/30 11:06:57;;;;;;;15.60;14.13;;;;;;;;;;5022499;28;20184;-77
2023/08/30 11:09:24;;;;;;;15.17;13.67;;;;;;;;;;5022428;28;20204;-77
2023/08/30 11:11:50;;;;;;;14.17;12.97;;;;;;;;;;5038881;28;20322;-77
2023/08/30 11:14:17;;;;;;;15.43;14.03;;;;;;;;;;5039072;28;20188;-77
2023/08/30 11:16:44;;;;;;;15.17;13.67;;;;;;;;;;5039037;28;20207;-77
2023/08/30 11:19:11;;;;;;;14.73;13.50;;;;;;;;;;5038562;28;20199;-77
2023/08/30 11:21:38;;;;;;;14.73;13.43;;;;;;;;;;5039523;28;20180;-75
2023/08/30 11:24:07;;;;;;;15.33;13.97;;;;;;;;;;5056655;28;20218;-77
2023/08/30 11:26:33;;;;;;;14.93;13.57;;;;;;;;;;5038785;28;20203;-77
2023/08/30 11:29:06;;;;;;;15.53;14.03;;;;;;;;;;5039004;28;20226;-76
2023/08/30 11:31:32;;;;;;;15.40;14.07;;;;;;;;;;5055976;28;20275;-74
2023/08/30 11:33:59;;;;;;;15.97;14.27;;;;;;;;;;5038761;28;20180;-75
2023/08/30 11:36:29;;;;;;;16.63;15.13;;;;;;;;;;5031362;28;20274;-76
2023/08/30 11:38:55;;;;;;;17.60;15.90;;;;;;;;;;5038577;28;20183;-76
2023/08/30 11:41:21;;;;;;;18.23;16.57;;;;;;;;;;5038909;28;20271;-73
2023/08/30 11:43:48;;;;;;;17.27;15.77;;;;;;;;;;5021874;28;20246;-76
2023/08/30 11:46:14;;;;;;;16.80;15.30;;;;;;;;;;5057122;28;20278;-81
2023/08/30 11:48:44;;;;;;;14.93;13.43;;;;;;;;;;5041950;28;20285;-81
2023/08/30 11:51:10;;;;;;;11.97;10.87;;;;;;;;;;5038898;28;20180;-81
2023/08/30 11:53:37;;;;;;;11.23;10.23;;;;;;;;;;5055676;28;20270;-81
2023/08/30 11:56:03;;;;;;;11.17;10.17;;;;;;;;;;5055530;28;20195;-82
2023/08/30 11:58:33;;;;;;;9.03;8.23;;;;;;;;;;5021796;28;20184;-81
2023/08/30 12:00:59;;;;;;;7.43;6.72;;;;;;;;;;5037979;28;20465;-81
2023/08/30 12:03:29;;;;;;;7.53;6.80;;;;;;;;;;5021248;28;20216;-77
2023/08/30 12:05:55;;;;;;;8.77;6.33;;;;;;;;;;5037346;28;20183;-76
2023/08/30 12:08:23;;;;;;;7.40;6.00;;;;;;;;;;5054794;28;20184;-77
2023/08/30 12:10:49;;;;;;;6.27;5.60;;;;;;;;;;5037840;28;20182;-74
2023/08/30 12:13:25;;;;;;;7.17;5.70;;;;;;;;;;5035885;28;20269;-74
2023/08/30 12:15:51;;;;;;;6.83;5.30;;;;;;;;;;5038335;28;20184;-75
2023/08/30 12:18:21;;;;;;;6.57;5.57;;;;;;;;;;5054855;28;20191;-75
2023/08/30 12:21:04;;;;;;;7.05;5.28;;;;;;;;;;5054927;28;20465;-80
2023/08/30 12:23:33;;;;;;;7.10;5.70;;;;;;;;;;5036440;28;20435;-80
2023/08/30 12:26:04;;;;;;;5.77;4.97;;;;;;;;;;5037394;28;20230;-81
2023/08/30 12:28:30;;;;;;;7.03;4.83;;;;;;;;;;5037763;28;20180;-80
2023/08/30 12:30:57;;;;;;;7.40;5.00;;;;;;;;;;5021375;28;20180;-81
2023/08/30 12:33:25;;;;;;;6.07;4.63;;;;;;;;;;5055334;28;20179;-80
2023/08/30 12:35:51;;;;;;;9.30;5.00;;;;;;;;;;5037001;28;20427;-76
2023/08/30 12:38:17;;;;;;;5.87;4.10;;;;;;;;;;5055133;28;20266;-76
2023/08/30 12:40:47;;;;;;;7.10;3.92;;;;;;;;;;5019698;28;20418;-76
2023/08/30 12:43:13;;;;;;;8.00;3.77;;;;;;;;;;5037324;28;20215;-76
2023/08/30 12:45:40;;;;;;;8.15;3.92;;;;;;;;;;5022629;28;20464;-76
2023/08/30 12:48:06;;;;;;;7.57;3.90;;;;;;;;;;5046581;28;20538;-76
2023/08/30 12:50:32;;;;;;;7.97;3.90;;;;;;;;;;5019637;28;20419;-76
2023/08/30 12:52:58;;;;;;;7.93;3.37;;;;;;;;;;5054221;28;20310;-76
2023/08/30 12:55:24;;;;;;;10.23;4.10;;;;;;;;;;5036114;28;20439;-77
2023/08/30 12:57:50;;;;;;;7.20;3.47;;;;;;;;;;5017796;28;20418;-76
2023/08/30 13:00:16;;;;;;;6.13;3.30;;;;;;;;;;5048486;28;20470;-76
2023/08/30 13:02:42;;;;;;;7.57;3.33;;;;;;;;;;5031620;28;20180;-76
2023/08/30 13:05:09;;;;;;;8.67;3.40;;;;;;;;;;5020439;28;20234;-76
2023/08/30 13:07:35;;;;;;;6.47;3.63;;;;;;;;;;5020346;28;20481;-77
2023/08/30 13:10:01;;;;;;;6.30;3.58;;;;;;;;;;5017184;28;20426;-75
2023/08/30 13:12:27;;;;;;;9.80;3.90;;;;;;;;;;5033683;28;20534;-74
2023/08/30 13:14:53;;;;;;;8.80;3.77;;;;;;;;;;5015768;28;20430;-74
2023/08/30 13:17:19;;;;;;;4.83;3.30;;;;;;;;;;5035050;28;20203;-74
2023/08/30 13:19:45;;;;;;;9.60;3.67;;;;;;;;;;5036727;28;20180;-75
2023/08/30 13:22:11;;;;;;;10.03;3.60;;;;;;;;;;5020110;28;20279;-75
2023/08/30 13:24:37;;;;;;;8.70;3.60;;;;;;;;;;5047463;28;20435;-75
2023/08/30 13:27:03;;;;;;;8.55;3.53;;;;;;;;;;5047990;28;20431;-75
2023/08/30 13:29:29;;;;;;;6.93;3.20;;;;;;;;;;5048389;28;20184;-75
2023/08/30 13:31:56;;;;;;;9.10;3.77;;;;;;;;;;5037078;28;20436;-75
2023/08/30 13:34:22;;;;;;;9.82;3.60;;;;;;;;;;5033593;28;20409;-76
2023/08/30 13:36:48;;;;;;;9.07;3.40;;;;;;;;;;4999676;28;20421;-75
2023/08/30 13:39:14;;;;;;;9.27;3.45;;;;;;;;;;5003686;28;20423;-76
2023/08/30 13:41:40;;;;;;;8.40;3.60;;;;;;;;;;5037221;28;20430;-76
2023/08/30 13:44:07;;;;;;;8.48;3.60;;;;;;;;;;5027806;28;20512;-75
2023/08/30 13:46:34;;;;;;;10.07;3.65;;;;;;;;;;5032099;28;20410;-75
2023/08/30 13:49:00;;;;;;;8.43;3.40;;;;;;;;;;5033619;28;20452;-75
2023/08/30 13:51:26;;;;;;;8.63;3.55;;;;;;;;;;5025166;28;20504;-75
2023/08/30 13:53:53;;;;;;;7.90;3.35;;;;;;;;;;5018870;28;20489;-75
2023/08/30 13:56:20;;;;;;;9.13;3.30;;;;;;;;;;5032419;28;20424;-75
2023/08/30 13:58:46;;;;;;;10.23;3.63;;;;;;;;;;5031359;28;20410;-75
2023/08/30 14:01:12;;;;;;;9.75;3.50;;;;;;;;;;5062028;28;20428;-81
2023/08/30 14:03:38;;;;;;;7.63;3.55;;;;;;;;;;5020427;28;20431;-80
2023/08/30 14:06:05;;;;;;;11.68;3.75;;;;;;;;;;5037542;28;20413;-80
2023/08/30 14:08:31;;;;;;;8.18;3.20;;;;;;;;;;5034832;28;20413;-79
2023/08/30 14:10:58;;;;;;;10.38;3.63;;;;;;;;;;5024168;28;20424;-80
2023/08/30 14:13:24;;;;;;;8.63;3.53;;;;;;;;;;5037500;28;20444;-79
2023/08/30 14:15:50;;;;;;;9.50;3.47;;;;;;;;;;5032380;28;20416;-75
2023/08/30 14:18:17;;;;;;;7.43;3.10;;;;;;;;;;5026267;28;20501;-76
2023/08/30 14:20:43;;;;;;;8.95;3.08;;;;;;;;;;5031059;28;20435;-76
2023/08/30 14:23:09;;;;;;;9.50;2.92;;;;;;;;;;5031530;28;20515;-76
2023/08/30 14:25:36;;;;;;;6.63;3.05;;;;;;;;;;5044233;28;20428;-76
2023/08/30 14:28:03;;;;;;;8.98;2.90;;;;;;;;;;5029978;28;20425;-76